Time;durP1;ratioP1;P1;durP2;ratioP2;P2;SDS_P1;SDS_P2;PMS_P1;PMS_P2;Temp;Humidity;BMP_temperature;BMP_pressure;BME280_temperature;BME280_humidity;BME280_pressure;Samples;Min_cycle;Max_cycle;Signal;HPM_P1;HPM_P2
2023/10/22 00:02:06;;;;;;;4.53;2.30;;;15.40;99.90;;;;;;5013455;28;20421;-71
2023/10/22 00:04:31;;;;;;;2.43;2.23;;;15.50;99.90;;;;;;5010615;28;20187;-70
2023/10/22 00:06:58;;;;;;;3.73;2.20;;;15.50;99.90;;;;;;5000094;28;20728;-71
2023/10/22 00:09:24;;;;;;;3.73;3.43;;;15.50;99.90;;;;;;4994731;28;20184;-70
2023/10/22 00:11:49;;;;;;;2.77;2.20;;;15.50;99.90;;;;;;5010536;28;20447;-70
2023/10/22 00:14:15;;;;;;;3.03;2.20;;;15.50;99.90;;;;;;5011952;28;20627;-71
2023/10/22 00:16:41;;;;;;;2.30;2.20;;;15.50;99.90;;;;;;5011805;28;20222;-65
2023/10/22 00:19:08;;;;;;;2.43;2.23;;;15.50;99.90;;;;;;5012116;28;20417;-70
2023/10/22 00:21:34;;;;;;;2.27;2.10;;;15.60;99.90;;;;;;5012973;28;20175;-70
2023/10/22 00:24:00;;;;;;;2.60;2.40;;;15.70;99.90;;;;;;5012177;28;20621;-70
2023/10/22 00:26:25;;;;;;;3.53;2.20;;;15.60;99.90;;;;;;5013239;28;20498;-70
2023/10/22 00:28:51;;;;;;;2.40;2.30;;;15.60;99.90;;;;;;5011718;28;20190;-71
2023/10/22 00:31:17;;;;;;;2.30;2.10;;;15.60;99.90;;;;;;5011004;28;20581;-70
2023/10/22 00:33:43;;;;;;;4.50;2.53;;;15.60;99.90;;;;;;5011942;28;20174;-68
2023/10/22 00:36:09;;;;;;;4.97;2.13;;;15.60;99.90;;;;;;5010080;28;20362;-70
2023/10/22 00:38:34;;;;;;;2.73;2.00;;;15.50;99.90;;;;;;5012536;28;20197;-70
2023/10/22 00:41:00;;;;;;;2.53;2.20;;;15.50;99.90;;;;;;5011757;28;20923;-71
2023/10/22 00:43:26;;;;;;;3.53;2.33;;;15.30;99.90;;;;;;5012498;28;20179;-70
2023/10/22 00:45:53;;;;;;;2.57;2.40;;;15.40;99.90;;;;;;5011725;28;20190;-70
2023/10/22 00:48:21;;;;;;;2.73;2.10;;;15.30;99.90;;;;;;5011722;28;20245;-69
2023/10/22 00:50:47;;;;;;;2.53;2.23;;;15.40;99.90;;;;;;5006193;28;20466;-70
2023/10/22 00:53:15;;;;;;;4.20;2.70;;;15.40;99.90;;;;;;5009346;28;20421;-70
2023/10/22 00:55:44;;;;;;;2.00;1.90;;;15.50;99.90;;;;;;5012106;28;20795;-63
2023/10/22 00:58:12;;;;;;;3.37;2.00;;;15.50;99.90;;;;;;5012483;28;20886;-70
2023/10/22 01:00:39;;;;;;;2.30;2.20;;;15.40;99.90;;;;;;5010604;28;20429;-66
2023/10/22 01:03:05;;;;;;;5.10;2.53;;;15.50;99.90;;;;;;4999790;28;20504;-70
2023/10/22 01:05:35;;;;;;;3.17;2.33;;;15.60;99.90;;;;;;4993133;28;20509;-71
2023/10/22 01:08:02;;;;;;;3.10;2.63;;;15.40;99.90;;;;;;4991244;28;20426;-70
2023/10/22 01:10:28;;;;;;;2.80;2.60;;;15.30;99.90;;;;;;5012131;28;20504;-70
2023/10/22 01:12:53;;;;;;;2.30;2.07;;;15.30;99.90;;;;;;5011087;28;20535;-70
2023/10/22 01:15:19;;;;;;;2.83;2.20;;;15.20;99.90;;;;;;5012269;28;20183;-70
2023/10/22 01:17:45;;;;;;;3.07;1.97;;;15.30;99.90;;;;;;5011287;28;20207;-65
2023/10/22 01:20:11;;;;;;;2.73;2.20;;;15.20;99.90;;;;;;5010032;28;20259;-68
2023/10/22 01:22:37;;;;;;;2.20;2.10;;;15.30;99.90;;;;;;5003292;28;20273;-70
2023/10/22 01:25:03;;;;;;;2.17;1.97;;;15.30;99.90;;;;;;5004614;28;20516;-70
2023/10/22 01:27:32;;;;;;;1.87;1.77;;;15.30;99.90;;;;;;4997950;28;20644;-70
2023/10/22 01:29:58;;;;;;;1.80;1.77;;;15.30;99.90;;;;;;5010963;28;20467;-70
2023/10/22 01:32:24;;;;;;;3.10;2.33;;;15.40;99.90;;;;;;5012054;28;20817;-70
2023/10/22 01:34:50;;;;;;;2.73;2.53;;;15.30;99.90;;;;;;5010958;28;20692;-70
2023/10/22 01:37:15;;;;;;;3.93;2.30;;;15.30;99.90;;;;;;5006501;28;20458;-71
2023/10/22 01:39:41;;;;;;;16.53;2.70;;;15.30;99.90;;;;;;4992644;28;20179;-70
2023/10/22 01:42:07;;;;;;;2.53;2.40;;;15.20;99.90;;;;;;5009840;28;20171;-70
2023/10/22 01:44:32;;;;;;;2.50;2.10;;;15.20;99.90;;;;;;5010540;28;20618;-70
2023/10/22 01:46:58;;;;;;;6.57;2.43;;;15.20;99.90;;;;;;5011467;28;20228;-70
2023/10/22 01:49:24;;;;;;;2.27;2.10;;;15.20;99.90;;;;;;5011270;28;20186;-70
2023/10/22 01:51:49;;;;;;;2.60;2.10;;;15.20;99.90;;;;;;5010178;28;20233;-70
2023/10/22 01:54:15;;;;;;;2.50;2.40;;;15.30;99.90;;;;;;5010545;28;20179;-70
2023/10/22 01:56:41;;;;;;;4.73;2.17;;;15.40;99.90;;;;;;4999437;28;20214;-71
2023/10/22 01:59:07;;;;;;;2.40;1.70;;;15.40;99.90;;;;;;5009448;28;20194;-70
2023/10/22 02:01:33;;;;;;;1.97;1.70;;;15.50;99.90;;;;;;5005305;28;20921;-71
2023/10/22 02:03:59;;;;;;;2.00;1.90;;;15.30;99.90;;;;;;4991671;28;20628;-70
2023/10/22 02:06:24;;;;;;;2.50;2.30;;;15.30;99.90;;;;;;5009518;28;20190;-71
2023/10/22 02:08:50;;;;;;;2.73;2.03;;;15.10;99.90;;;;;;5010451;28;20240;-69
2023/10/22 02:11:17;;;;;;;2.20;1.93;;;15.20;99.90;;;;;;5011983;28;20178;-70
2023/10/22 02:13:43;;;;;;;1.90;1.80;;;15.30;99.90;;;;;;5011622;28;20175;-70
2023/10/22 02:16:08;;;;;;;2.33;2.23;;;15.40;99.90;;;;;;5010762;28;20783;-69
2023/10/22 02:18:34;;;;;;;2.60;2.00;;;15.40;99.90;;;;;;5013861;28;20603;-70
2023/10/22 02:21:02;;;;;;;2.80;1.97;;;15.40;99.90;;;;;;5013622;28;20190;-69
2023/10/22 02:23:28;;;;;;;1.80;1.70;;;15.30;99.90;;;;;;5014917;28;20556;-70
2023/10/22 02:25:54;;;;;;;2.00;1.90;;;15.40;99.90;;;;;;5012865;28;20512;-69
2023/10/22 02:28:20;;;;;;;2.30;1.90;;;15.50;99.90;;;;;;5015249;28;20194;-70
2023/10/22 02:30:49;;;;;;;4.50;2.10;;;15.50;99.90;;;;;;5014417;28;20429;-62
2023/10/22 02:33:15;;;;;;;3.80;2.00;;;15.20;99.90;;;;;;5014868;28;20819;-70
2023/10/22 02:35:42;;;;;;;2.00;1.90;;;15.10;99.90;;;;;;5015241;28;20499;-70
2023/10/22 02:38:14;;;;;;;3.13;2.00;;;15.20;99.90;;;;;;5001739;28;20450;-70
2023/10/22 02:40:40;;;;;;;1.80;1.80;;;15.20;99.90;;;;;;5000755;28;20448;-71
2023/10/22 02:43:06;;;;;;;1.93;1.80;;;15.20;99.90;;;;;;5013075;28;20914;-71
2023/10/22 02:45:32;;;;;;;1.80;1.70;;;15.20;99.90;;;;;;5007795;28;20475;-70
2023/10/22 02:47:59;;;;;;;2.00;1.90;;;15.30;99.90;;;;;;5012693;28;20437;-70
2023/10/22 02:50:26;;;;;;;1.93;1.83;;;15.30;99.90;;;;;;4998550;28;20201;-69
2023/10/22 02:52:53;;;;;;;2.67;2.20;;;15.30;99.90;;;;;;5000359;28;20917;-70
2023/10/22 02:55:20;;;;;;;2.80;2.00;;;15.30;99.90;;;;;;5006604;28;20422;-70
2023/10/22 02:57:46;;;;;;;2.07;1.87;;;15.20;99.90;;;;;;5014783;28;20543;-70
2023/10/22 03:00:12;;;;;;;2.53;2.00;;;15.20;99.90;;;;;;5013547;28;20572;-69
2023/10/22 03:02:40;;;;;;;2.30;2.10;;;14.90;99.90;;;;;;5013632;28;20436;-70
2023/10/22 03:05:06;;;;;;;3.50;2.50;;;14.90;99.90;;;;;;5014005;28;20490;-69
2023/10/22 03:07:32;;;;;;;3.30;2.20;;;15.00;99.90;;;;;;4996180;28;20441;-70
2023/10/22 03:09:58;;;;;;;3.37;2.47;;;15.10;99.90;;;;;;4998967;28;20426;-69
2023/10/22 03:12:23;;;;;;;2.93;2.07;;;15.20;99.90;;;;;;5014140;28;20178;-70
2023/10/22 03:14:53;;;;;;;2.87;2.53;;;15.20;99.90;;;;;;5013855;28;20193;-63
2023/10/22 03:17:19;;;;;;;2.30;2.10;;;15.20;99.90;;;;;;5013241;28;20535;-69
2023/10/22 03:19:46;;;;;;;2.07;1.93;;;15.30;99.90;;;;;;5013484;28;20435;-69
2023/10/22 03:22:13;;;;;;;2.10;2.00;;;15.30;99.90;;;;;;5009922;28;20515;-69
2023/10/22 03:24:38;;;;;;;1.97;1.87;;;15.30;99.90;;;;;;5014102;28;20841;-69
2023/10/22 03:27:05;;;;;;;2.37;2.27;;;15.30;99.90;;;;;;5013429;28;20440;-68
2023/10/22 03:29:31;;;;;;;2.20;2.10;;;15.30;99.90;;;;;;5013088;28;20519;-68
2023/10/22 03:31:57;;;;;;;2.83;2.00;;;15.30;99.90;;;;;;5013439;28;20409;-68
2023/10/22 03:34:24;;;;;;;2.20;2.00;;;15.20;99.90;;;;;;5014212;28;20413;-70
2023/10/22 03:36:50;;;;;;;4.00;2.30;;;15.10;99.90;;;;;;5013837;28;20472;-61
2023/10/22 03:39:19;;;;;;;1.67;1.67;;;15.10;99.90;;;;;;4995516;28;20429;-69
2023/10/22 03:41:44;;;;;;;1.80;1.70;;;15.10;99.90;;;;;;5008167;28;20924;-69
2023/10/22 03:44:10;;;;;;;1.50;1.40;;;15.20;99.90;;;;;;4993663;28;20483;-69
2023/10/22 03:46:36;;;;;;;1.57;1.47;;;15.20;99.90;;;;;;4994550;28;20273;-69
2023/10/22 03:49:02;;;;;;;1.70;1.60;;;15.00;99.90;;;;;;5000507;28;20185;-69
2023/10/22 03:51:27;;;;;;;1.90;1.80;;;15.00;99.90;;;;;;5012206;28;20695;-69
2023/10/22 03:53:53;;;;;;;1.77;1.67;;;15.00;99.90;;;;;;5011287;28;20213;-62
2023/10/22 03:56:20;;;;;;;2.73;1.77;;;14.90;99.90;;;;;;5012948;28;20202;-69
2023/10/22 03:58:46;;;;;;;2.37;1.90;;;15.00;99.90;;;;;;5013127;28;20909;-69
2023/10/22 04:01:12;;;;;;;1.53;1.50;;;15.10;99.90;;;;;;5012202;28;20496;-69
2023/10/22 04:03:37;;;;;;;3.43;1.50;;;15.10;99.90;;;;;;5013560;28;20269;-70
2023/10/22 04:06:03;;;;;;;2.10;2.00;;;15.10;99.90;;;;;;5012141;28;20182;-69
2023/10/22 04:08:29;;;;;;;2.10;2.00;;;15.10;99.90;;;;;;5008603;28;20191;-69
2023/10/22 04:10:55;;;;;;;1.90;1.80;;;15.20;99.90;;;;;;4992940;28;20909;-62
2023/10/22 04:13:22;;;;;;;2.33;1.87;;;15.30;99.90;;;;;;5002121;28;20536;-69
2023/10/22 04:15:48;;;;;;;3.37;2.10;;;15.30;99.90;;;;;;5013217;28;20948;-68
2023/10/22 04:18:16;;;;;;;1.77;1.67;;;15.30;99.90;;;;;;5012591;28;20449;-69
2023/10/22 04:20:42;;;;;;;4.87;1.77;;;15.30;99.90;;;;;;5010371;28;20447;-69
2023/10/22 04:23:08;;;;;;;4.93;1.70;;;15.30;99.90;;;;;;5011860;28;20515;-69
2023/10/22 04:25:39;;;;;;;1.80;1.70;;;15.20;99.90;;;;;;5012914;28;20424;-69
2023/10/22 04:28:07;;;;;;;2.40;2.07;;;15.20;99.90;;;;;;5011408;28;20461;-68
2023/10/22 04:30:35;;;;;;;1.50;1.50;;;15.10;99.90;;;;;;5004642;28;20516;-68
2023/10/22 04:33:01;;;;;;;2.27;2.17;;;15.00;99.90;;;;;;4992743;28;20421;-69
2023/10/22 04:35:27;;;;;;;1.67;1.57;;;15.10;99.90;;;;;;5009182;28;20432;-69
2023/10/22 04:37:56;;;;;;;1.87;1.87;;;15.10;99.90;;;;;;5011157;28;20281;-61
2023/10/22 04:40:21;;;;;;;2.90;1.90;;;15.10;99.90;;;;;;5012888;28;20273;-68
2023/10/22 04:42:47;;;;;;;3.07;2.13;;;15.00;99.90;;;;;;5012215;28;20875;-68
2023/10/22 04:45:13;;;;;;;1.93;1.83;;;15.00;99.90;;;;;;5011246;28;20182;-69
2023/10/22 04:47:39;;;;;;;1.60;1.60;;;15.00;99.90;;;;;;5013018;28;20479;-69
2023/10/22 04:50:05;;;;;;;2.20;2.10;;;14.90;99.90;;;;;;5009159;28;20288;-69
2023/10/22 04:52:31;;;;;;;2.03;1.93;;;14.90;99.90;;;;;;5011277;28;20232;-69
2023/10/22 04:54:59;;;;;;;2.07;1.97;;;14.90;99.90;;;;;;5011788;28;20486;-61
2023/10/22 04:57:24;;;;;;;5.30;3.30;;;14.90;99.90;;;;;;5009885;28;20473;-69
2023/10/22 04:59:50;;;;;;;2.27;2.10;;;14.90;99.90;;;;;;5012410;28;20427;-70
2023/10/22 05:02:16;;;;;;;2.27;2.17;;;14.80;99.90;;;;;;5011186;28;20178;-69
2023/10/22 05:04:46;;;;;;;1.90;1.90;;;14.80;99.90;;;;;;5012392;28;20436;-69
2023/10/22 05:07:11;;;;;;;2.13;2.03;;;14.90;99.90;;;;;;5011281;28;20193;-69
2023/10/22 05:09:37;;;;;;;2.30;2.20;;;14.90;99.90;;;;;;5011826;28;20433;-69
2023/10/22 05:12:03;;;;;;;1.73;1.63;;;15.00;99.90;;;;;;5008328;28;20178;-69
2023/10/22 05:14:29;;;;;;;2.43;2.27;;;14.90;99.90;;;;;;5012315;28;20585;-68
2023/10/22 05:16:55;;;;;;;3.30;2.37;;;15.00;99.90;;;;;;5011237;28;20487;-61
2023/10/22 05:19:21;;;;;;;3.30;2.30;;;15.00;99.90;;;;;;5011168;28;20464;-68
2023/10/22 05:21:47;;;;;;;2.03;1.93;;;14.90;99.90;;;;;;5010262;28;20935;-69
2023/10/22 05:24:13;;;;;;;3.00;2.67;;;15.00;99.90;;;;;;5009967;28;20178;-68
2023/10/22 05:26:39;;;;;;;3.10;2.90;;;15.00;99.90;;;;;;5011747;28;20188;-69
2023/10/22 05:29:07;;;;;;;2.30;2.20;;;15.00;99.90;;;;;;5011330;28;20178;-69
2023/10/22 05:31:33;;;;;;;2.40;2.30;;;15.10;99.90;;;;;;5012381;28;20418;-69
2023/10/22 05:33:58;;;;;;;2.73;2.53;;;15.10;99.90;;;;;;5011490;28;20431;-62
2023/10/22 05:36:25;;;;;;;3.13;2.20;;;15.10;99.90;;;;;;5012173;28;20673;-69
2023/10/22 05:38:51;;;;;;;4.40;3.30;;;15.00;99.90;;;;;;5012063;28;20624;-69
2023/10/22 05:41:21;;;;;;;3.30;3.10;;;15.00;99.90;;;;;;5009713;28;20427;-69
2023/10/22 05:43:51;;;;;;;2.10;2.00;;;15.10;99.90;;;;;;5012284;28;20240;-70
2023/10/22 05:46:17;;;;;;;3.07;2.87;;;15.10;99.90;;;;;;5010642;28;21056;-68
2023/10/22 05:48:43;;;;;;;2.20;2.10;;;15.10;99.90;;;;;;4994545;28;20422;-69
2023/10/22 05:51:09;;;;;;;2.50;2.30;;;15.10;99.90;;;;;;5008485;28;21033;-68
2023/10/22 05:53:35;;;;;;;3.67;3.40;;;15.10;99.90;;;;;;5013718;28;20273;-69
2023/10/22 05:56:00;;;;;;;3.73;2.60;;;15.20;99.90;;;;;;5015543;28;20242;-62
2023/10/22 05:58:26;;;;;;;3.50;3.30;;;15.10;99.90;;;;;;5015918;28;20437;-69
2023/10/22 06:00:53;;;;;;;2.63;2.43;;;15.10;99.90;;;;;;5011953;28;20185;-68
2023/10/22 06:03:19;;;;;;;2.60;2.50;;;15.00;99.90;;;;;;5014639;28;20421;-68
2023/10/22 06:05:45;;;;;;;3.10;3.00;;;15.10;99.90;;;;;;5007321;28;20476;-69
2023/10/22 06:08:11;;;;;;;3.87;3.57;;;15.00;99.90;;;;;;5014256;28;20490;-68
2023/10/22 06:10:48;;;;;;;2.87;2.70;;;15.00;99.90;;;;;;5005191;28;20428;-69
2023/10/22 06:13:14;;;;;;;2.60;2.50;;;15.00;99.90;;;;;;4995941;28;20234;-69
2023/10/22 06:15:42;;;;;;;2.60;2.50;;;15.00;99.90;;;;;;5006527;28;20428;-68
2023/10/22 06:18:08;;;;;;;1.80;1.80;;;14.90;99.90;;;;;;5013692;28;20475;-68
2023/10/22 06:20:34;;;;;;;2.00;1.90;;;14.90;99.90;;;;;;5012240;28;20440;-68
2023/10/22 06:23:01;;;;;;;1.87;1.87;;;14.80;99.90;;;;;;5012961;28;20426;-60
2023/10/22 06:25:27;;;;;;;1.73;1.73;;;14.80;99.90;;;;;;5014916;28;20506;-68
2023/10/22 06:27:55;;;;;;;2.00;1.90;;;14.80;99.90;;;;;;5012383;28;20435;-68
2023/10/22 06:30:25;;;;;;;1.47;1.43;;;14.80;99.90;;;;;;4996382;28;20445;-68
2023/10/22 06:32:51;;;;;;;1.80;1.80;;;14.80;99.90;;;;;;5010667;28;20433;-68
2023/10/22 06:35:19;;;;;;;2.13;2.13;;;14.80;99.90;;;;;;4993660;28;20426;-68
2023/10/22 06:37:47;;;;;;;2.60;2.50;;;14.80;99.90;;;;;;5013585;28;21024;-72
2023/10/22 06:40:13;;;;;;;4.73;4.37;;;14.80;99.90;;;;;;5010348;28;20513;-70
2023/10/22 06:42:42;;;;;;;3.17;2.97;;;14.80;99.90;;;;;;5012973;28;20507;-74
2023/10/22 06:45:08;;;;;;;2.60;2.50;;;14.90;99.90;;;;;;5006059;28;20480;-72
2023/10/22 06:47:37;;;;;;;2.17;2.13;;;14.90;99.90;;;;;;5014803;28;20463;-75
2023/10/22 06:50:05;;;;;;;2.20;2.17;;;14.90;99.90;;;;;;5014088;28;20440;-64
2023/10/22 06:52:30;;;;;;;2.30;2.20;;;15.00;99.90;;;;;;5003798;28;20461;-74
2023/10/22 06:54:56;;;;;;;2.10;2.10;;;15.00;99.90;;;;;;4995338;28;20898;-74
2023/10/22 06:57:22;;;;;;;2.20;2.10;;;15.10;99.90;;;;;;4994450;28;20476;-75
2023/10/22 06:59:48;;;;;;;2.30;2.20;;;15.10;99.90;;;;;;4997564;28;20184;-74
2023/10/22 07:02:15;;;;;;;2.20;2.10;;;15.10;99.90;;;;;;5013259;28;20182;-74
2023/10/22 07:04:42;;;;;;;2.33;2.33;;;15.10;99.90;;;;;;5004924;28;20413;-68
2023/10/22 07:07:08;;;;;;;1.70;1.70;;;15.10;99.90;;;;;;5006764;28;20446;-68
2023/10/22 07:09:34;;;;;;;2.67;2.10;;;15.20;99.90;;;;;;5011290;28;20924;-74
2023/10/22 07:11:59;;;;;;;2.27;2.27;;;15.20;99.90;;;;;;5013956;28;20190;-75
2023/10/22 07:14:26;;;;;;;2.37;2.27;;;15.20;99.90;;;;;;5006264;28;20188;-75
2023/10/22 07:16:52;;;;;;;2.70;2.60;;;15.10;99.90;;;;;;5014246;28;20229;-71
2023/10/22 07:19:18;;;;;;;2.43;2.23;;;15.10;99.90;;;;;;5000999;28;20827;-75
2023/10/22 07:21:44;;;;;;;2.40;2.30;;;15.00;99.90;;;;;;5013580;28;20241;-70
2023/10/22 07:24:10;;;;;;;1.57;1.57;;;15.10;99.90;;;;;;5012932;28;20178;-75
2023/10/22 07:26:35;;;;;;;14.87;12.60;;;15.10;99.90;;;;;;5011775;28;20442;-75
2023/10/22 07:29:01;;;;;;;2.47;2.37;;;15.00;99.90;;;;;;5013705;28;20185;-76
2023/10/22 07:31:27;;;;;;;1.80;1.80;;;15.00;99.90;;;;;;5009688;28;20189;-74
2023/10/22 07:33:52;;;;;;;1.80;1.80;;;14.90;99.90;;;;;;5019823;28;20702;-75
2023/10/22 07:36:18;;;;;;;2.30;2.10;;;14.90;99.90;;;;;;5005460;28;20194;-75
2023/10/22 07:38:44;;;;;;;4.67;4.37;;;14.90;99.90;;;;;;5011161;28;20225;-74
2023/10/22 07:41:14;;;;;;;1.90;1.90;;;14.90;99.90;;;;;;5016992;28;20624;-74
2023/10/22 07:43:40;;;;;;;2.00;2.00;;;14.90;99.90;;;;;;5020109;28;20178;-76
2023/10/22 07:46:05;;;;;;;2.30;2.20;;;14.90;99.90;;;;;;5011507;28;20583;-65
2023/10/22 07:48:32;;;;;;;1.97;1.87;;;14.90;99.90;;;;;;5011060;28;20193;-76
2023/10/22 07:51:18;;;;;;;1.80;1.80;;;14.90;99.90;;;;;;5001451;28;20232;-77
2023/10/22 07:53:46;;;;;;;2.03;1.97;;;14.90;99.90;;;;;;5000739;28;20432;-71
2023/10/22 07:56:14;;;;;;;2.20;2.10;;;14.90;99.90;;;;;;5010039;28;20524;-76
2023/10/22 07:58:40;;;;;;;2.07;1.97;;;14.90;99.90;;;;;;5008176;28;20438;-76
2023/10/22 08:01:06;;;;;;;2.00;1.90;;;15.00;99.90;;;;;;5008373;28;20923;-64
2023/10/22 08:03:33;;;;;;;2.10;2.10;;;15.00;99.90;;;;;;4999152;28;20229;-76
2023/10/22 08:06:00;;;;;;;2.80;2.60;;;15.00;99.90;;;;;;4999097;28;20445;-76
2023/10/22 08:08:26;;;;;;;2.17;2.07;;;15.10;99.90;;;;;;4998381;28;21116;-76
2023/10/22 08:10:57;;;;;;;2.10;2.00;;;15.10;99.90;;;;;;5010346;28;20475;-77
2023/10/22 08:13:23;;;;;;;2.20;2.00;;;15.20;99.90;;;;;;5011889;28;20440;-76
2023/10/22 08:15:49;;;;;;;1.70;1.70;;;15.20;99.90;;;;;;5011274;28;20527;-76
2023/10/22 08:18:15;;;;;;;1.70;1.60;;;15.20;99.90;;;;;;5011968;28;20464;-68
2023/10/22 08:20:41;;;;;;;2.00;1.90;;;15.30;99.90;;;;;;5011977;28;20437;-76
2023/10/22 08:23:08;;;;;;;2.20;2.10;;;15.30;99.90;;;;;;5012195;28;20434;-63
2023/10/22 08:25:33;;;;;;;3.07;2.90;;;15.40;99.90;;;;;;5010630;28;20183;-72
2023/10/22 08:27:59;;;;;;;6.50;4.83;;;15.40;99.90;;;;;;5009113;28;20466;-73
2023/10/22 08:30:25;;;;;;;2.83;2.63;;;15.40;99.90;;;;;;5003438;28;20233;-72
2023/10/22 08:32:51;;;;;;;2.10;2.00;;;15.50;99.90;;;;;;5003962;28;22405;-72
2023/10/22 08:35:17;;;;;;;4.03;3.43;;;15.50;99.90;;;;;;5003695;28;20508;-64
2023/10/22 08:37:44;;;;;;;1.97;1.87;;;15.60;99.90;;;;;;5006930;28;20218;-65
2023/10/22 08:40:10;;;;;;;2.20;2.10;;;15.60;99.90;;;;;;5010389;28;20262;-64
2023/10/22 08:42:37;;;;;;;3.00;2.80;;;15.80;99.90;;;;;;5001294;28;20849;-65
2023/10/22 08:45:05;;;;;;;3.10;2.83;;;16.10;99.90;;;;;;4993673;28;20417;-66
2023/10/22 08:47:31;;;;;;;2.30;2.20;;;16.30;99.90;;;;;;5011237;28;20422;-65
2023/10/22 08:49:58;;;;;;;2.10;2.00;;;16.50;99.90;;;;;;5007926;28;20442;-65
2023/10/22 08:52:24;;;;;;;2.10;2.00;;;16.80;99.90;;;;;;5010573;28;20457;-66
2023/10/22 08:54:51;;;;;;;3.13;3.00;;;17.00;99.90;;;;;;5009907;28;20526;-65
2023/10/22 08:57:20;;;;;;;2.20;2.10;;;17.10;99.90;;;;;;4992370;28;20490;-65
2023/10/22 08:59:47;;;;;;;1.93;1.83;;;17.30;99.90;;;;;;4996955;28;20449;-65
2023/10/22 09:02:16;;;;;;;2.80;2.60;;;17.40;99.90;;;;;;5007509;28;20422;-64
2023/10/22 09:04:42;;;;;;;5.23;2.30;;;17.50;99.90;;;;;;5012431;28;20508;-65
2023/10/22 09:07:08;;;;;;;2.97;2.60;;;17.60;99.90;;;;;;5008984;28;20430;-65
2023/10/22 09:09:36;;;;;;;2.50;2.30;;;17.70;99.90;;;;;;4992238;28;20576;-66
2023/10/22 09:12:03;;;;;;;3.77;3.47;;;17.90;99.90;;;;;;5005088;28;20448;-66
2023/10/22 09:14:30;;;;;;;2.80;2.70;;;17.90;99.90;;;;;;5011771;28;20425;-66
2023/10/22 09:16:56;;;;;;;2.60;2.40;;;18.00;99.90;;;;;;5010833;28;20469;-73
2023/10/22 09:19:39;;;;;;;11.90;8.80;;;18.10;99.90;;;;;;5006116;28;20956;-69
2023/10/22 09:22:06;;;;;;;18.73;4.47;;;18.10;99.90;;;;;;4993470;28;20443;-68
2023/10/22 09:24:49;;;;;;;458.10;318.40;;;18.20;99.90;;;;;;5019502;28;20429;-69
2023/10/22 09:27:25;;;;;;;98.20;79.20;;;18.20;99.90;;;;;;5013645;28;20780;-68
2023/10/22 09:29:52;;;;;;;6.03;5.50;;;18.20;99.90;;;;;;5012803;28;20436;-69
2023/10/22 09:32:19;;;;;;;6.17;4.43;;;18.10;99.90;;;;;;5015180;28;20413;-68
2023/10/22 09:34:45;;;;;;;8.90;7.40;;;18.00;99.90;;;;;;5016049;28;20422;-68
2023/10/22 09:37:11;;;;;;;4.57;4.23;;;17.90;99.90;;;;;;5013411;28;20888;-69
2023/10/22 09:39:45;;;;;;;4.53;4.13;;;17.90;99.90;;;;;;5017526;28;20424;-68
2023/10/22 09:42:13;;;;;;;4.00;3.60;;;17.90;99.90;;;;;;5020539;28;20441;-69
2023/10/22 09:44:46;;;;;;;4.20;3.80;;;17.70;99.90;;;;;;5013722;28;20536;-69
2023/10/22 09:47:23;;;;;;;2.33;2.23;;;17.70;99.90;;;;;;5015590;28;20453;-68
2023/10/22 09:50:01;;;;;;;2.40;2.20;;;17.60;99.90;;;;;;5013854;28;21047;-69
2023/10/22 09:52:29;;;;;;;2.93;2.63;;;17.40;99.90;;;;;;5013218;28;20465;-70
2023/10/22 09:54:56;;;;;;;2.40;2.23;;;17.50;99.90;;;;;;5009417;28;20430;-68
2023/10/22 09:57:29;;;;;;;2.40;2.30;;;17.20;99.90;;;;;;5012203;28;20552;-69
2023/10/22 10:00:01;;;;;;;2.20;2.10;;;17.10;99.90;;;;;;5002804;28;20418;-69
2023/10/22 10:02:28;;;;;;;2.37;2.27;;;17.10;99.90;;;;;;5007798;28;20421;-69
2023/10/22 10:04:54;;;;;;;2.40;2.30;;;17.00;99.90;;;;;;5006289;28;20430;-69
2023/10/22 10:07:23;;;;;;;2.10;2.00;;;17.00;99.90;;;;;;5013420;28;20441;-65
2023/10/22 10:09:49;;;;;;;3.30;3.07;;;17.10;99.90;;;;;;5015160;28;20425;-64
2023/10/22 10:12:16;;;;;;;5.67;5.20;;;17.00;99.90;;;;;;5022292;28;20433;-62
2023/10/22 10:14:49;;;;;;;2.60;2.40;;;16.90;99.90;;;;;;5023363;28;20437;-66
2023/10/22 10:17:17;;;;;;;1.70;1.60;;;17.00;99.90;;;;;;5023288;28;20442;-65
2023/10/22 10:19:43;;;;;;;2.33;2.13;;;16.70;99.90;;;;;;5024203;28;20462;-67
2023/10/22 10:22:09;;;;;;;1.90;1.80;;;16.60;99.90;;;;;;5022687;28;20913;-66
2023/10/22 10:24:35;;;;;;;4.20;3.80;;;16.60;99.90;;;;;;5021415;28;20926;-67
2023/10/22 10:27:01;;;;;;;5.93;2.80;;;16.80;99.90;;;;;;5016886;28;20429;-66
2023/10/22 10:29:34;;;;;;;3.07;2.87;;;16.50;99.90;;;;;;5014735;28;20501;-64
2023/10/22 10:32:15;;;;;;;2.23;2.13;;;16.60;99.90;;;;;;5026625;28;20185;-63
2023/10/22 10:34:47;;;;;;;2.70;2.60;;;16.80;99.90;;;;;;5018423;28;20441;-61
2023/10/22 10:37:17;;;;;;;2.87;2.67;;;16.90;99.90;;;;;;5015777;28;20469;-64
2023/10/22 10:39:46;;;;;;;2.60;2.50;;;17.00;99.90;;;;;;5019549;28;20433;-63
2023/10/22 10:42:32;;;;;;;2.33;1.90;;;17.20;99.90;;;;;;5021304;28;20430;-64
2023/10/22 10:44:58;;;;;;;2.20;2.10;;;17.30;99.90;;;;;;5006525;28;20442;-64
2023/10/22 10:47:24;;;;;;;1.93;1.83;;;17.50;99.90;;;;;;5011005;28;20438;-64
2023/10/22 10:49:55;;;;;;;2.30;2.20;;;17.50;99.90;;;;;;5020304;28;20187;-64
2023/10/22 10:52:21;;;;;;;2.70;1.90;;;17.60;99.90;;;;;;5031766;28;20335;-63
2023/10/22 10:55:19;;;;;;;2.37;2.27;;;17.70;99.90;;;;;;5021197;28;20863;-64
2023/10/22 10:57:52;;;;;;;1.80;1.80;;;17.80;99.90;;;;;;4987732;28;20309;-63
2023/10/22 11:00:28;;;;;;;31.50;25.77;;;17.80;99.90;;;;;;5021939;28;20430;-64
2023/10/22 11:02:55;;;;;;;157.30;129.07;;;17.60;99.90;;;;;;5017370;28;20444;-71
2023/10/22 11:05:39;;;;;;;8.00;7.30;;;17.60;99.90;;;;;;5010617;28;20437;-71
2023/10/22 11:08:18;;;;;;;2.70;2.50;;;17.50;99.90;;;;;;5019795;28;20568;-70
2023/10/22 11:10:47;;;;;;;2.20;2.20;;;17.40;99.90;;;;;;5005744;28;20519;-70
2023/10/22 11:13:14;;;;;;;2.03;2.03;;;17.30;99.90;;;;;;5010633;28;20425;-70
2023/10/22 11:15:40;;;;;;;2.67;2.57;;;17.10;99.90;;;;;;5005323;28;20436;-69
2023/10/22 11:18:10;;;;;;;2.20;2.20;;;17.10;99.90;;;;;;5004061;28;20468;-70
2023/10/22 11:20:38;;;;;;;2.20;2.10;;;17.00;99.90;;;;;;5004363;28;20438;-70
2023/10/22 11:23:15;;;;;;;2.33;2.10;;;16.90;99.90;;;;;;5007285;28;20450;-69
2023/10/22 11:25:42;;;;;;;1.97;1.90;;;16.90;99.90;;;;;;5004147;28;20433;-69
2023/10/22 11:28:08;;;;;;;2.20;2.10;;;16.80;99.90;;;;;;5006485;28;20441;-72
2023/10/22 11:30:34;;;;;;;2.73;2.60;;;16.70;99.90;;;;;;5013610;28;20921;-71
2023/10/22 11:33:00;;;;;;;2.23;2.17;;;16.70;99.90;;;;;;5020857;28;20218;-69
2023/10/22 11:35:32;;;;;;;2.37;2.27;;;16.70;99.90;;;;;;5014364;28;20429;-69
2023/10/22 11:37:58;;;;;;;2.33;2.20;;;16.60;99.90;;;;;;5004908;28;20225;-69
2023/10/22 11:40:28;;;;;;;2.97;2.10;;;16.60;99.90;;;;;;5009806;28;20433;-71
2023/10/22 11:43:03;;;;;;;2.00;2.00;;;16.60;99.90;;;;;;5018607;28;20430;-69
2023/10/22 11:45:31;;;;;;;2.20;2.10;;;16.50;99.90;;;;;;5016633;28;20532;-72
2023/10/22 11:48:14;;;;;;;2.20;2.10;;;16.50;99.90;;;;;;5006744;28;20465;-71
2023/10/22 11:50:44;;;;;;;2.40;2.30;;;16.50;99.90;;;;;;5018634;28;20461;-69
2023/10/22 11:53:10;;;;;;;2.20;2.10;;;16.40;99.90;;;;;;5017255;28;20513;-71
2023/10/22 11:55:36;;;;;;;2.23;2.13;;;16.20;99.90;;;;;;5023651;28;20989;-68
2023/10/22 11:58:02;;;;;;;2.40;2.30;;;16.10;99.90;;;;;;5021791;28;20209;-69
2023/10/22 12:00:28;;;;;;;2.43;2.33;;;15.90;99.90;;;;;;5021624;28;20422;-70
2023/10/22 12:02:54;;;;;;;2.53;2.43;;;15.80;99.90;;;;;;5021276;28;20430;-69
2023/10/22 12:05:20;;;;;;;2.87;2.77;;;15.80;99.90;;;;;;5018794;28;20175;-68
2023/10/22 12:07:47;;;;;;;3.00;2.57;;;15.80;99.90;;;;;;5020235;28;20434;-70
2023/10/22 12:10:12;;;;;;;2.70;2.50;;;15.80;99.90;;;;;;5021575;28;20401;-70
2023/10/22 12:12:38;;;;;;;2.43;2.33;;;15.80;99.90;;;;;;5023844;28;20458;-70
2023/10/22 12:15:05;;;;;;;2.70;2.50;;;15.90;99.90;;;;;;5021352;28;20182;-70
2023/10/22 12:17:31;;;;;;;2.30;2.20;;;15.90;99.90;;;;;;5021637;28;20479;-70
2023/10/22 12:19:57;;;;;;;1.93;1.87;;;15.90;99.90;;;;;;5020215;28;20421;-69
2023/10/22 12:22:23;;;;;;;2.03;1.93;;;16.00;99.90;;;;;;5020624;28;20429;-68
2023/10/22 12:24:51;;;;;;;2.27;2.17;;;16.00;99.90;;;;;;5021765;28;20183;-69
2023/10/22 12:27:16;;;;;;;1.90;1.80;;;16.00;99.90;;;;;;5004326;28;20194;-69
2023/10/22 12:29:42;;;;;;;1.63;1.63;;;16.00;99.90;;;;;;5025115;28;20437;-70
2023/10/22 12:32:08;;;;;;;2.20;2.10;;;16.10;99.90;;;;;;5025793;28;20270;-70
2023/10/22 12:34:34;;;;;;;2.30;2.10;;;16.10;99.90;;;;;;5011247;28;20175;-61
2023/10/22 12:36:59;;;;;;;1.80;1.80;;;16.10;99.90;;;;;;5026817;28;20752;-59
2023/10/22 12:39:25;;;;;;;2.00;1.90;;;16.00;99.90;;;;;;5010238;28;20183;-60
2023/10/22 12:41:52;;;;;;;2.00;1.90;;;16.10;99.90;;;;;;5012056;28;20446;-59
2023/10/22 12:44:21;;;;;;;1.90;1.80;;;16.10;99.90;;;;;;5013156;28;20920;-59
2023/10/22 12:46:47;;;;;;;90.57;65.47;;;16.10;99.90;;;;;;5011751;28;20187;-59